Terminal Aerodrome Forecast
Issued by NWS

Home | Current Version | Previous Version | Text Only | Print | Product List | Glossary Off
Versions: 1 2 3 4 5 6 7 8 9 10 11 12 13 14 15 16 17 18 19 20 21 22 23 24

000
FTUS43 KGRB 241600 AAC
TAFAUW
TAF AMD
KAUW 241656Z 2417/2512 22005KT 4SM BR OVC002
      TEMPO 2417/2418 2SM BR BKN003
     FM241800 20006KT 5SM BR BKN006
     FM250000 21005KT 5SM BR BKN040
     FM250400 25006KT 5SM BR SCT006 SCT250=

USA.gov is the U.S. government's official web portal to all federal, state and local government web resources and services.